Time;durP1;ratioP1;P1;durP2;ratioP2;P2;SDS_P1;SDS_P2;PMS_P1;PMS_P2;Temp;Humidity;BMP_temperature;BMP_pressure;BME280_temperature;BME280_humidity;BME280_pressure;Samples;Min_cycle;Max_cycle;Signal;HPM_P1;HPM_P2
2021/01/14 00:01:56;;;;;;;;;;;4.50;99.90;;;;;;5067462;28;19916;-81
2021/01/14 00:04:22;;;;;;;;;;;4.50;99.90;;;;;;5066897;28;19912;-80
2021/01/14 00:06:50;;;;;;;;;;;4.50;99.90;;;;;;5086190;28;19908;-80
2021/01/14 00:09:16;;;;;;;;;;;4.50;99.90;;;;;;5085117;28;20015;-80
2021/01/14 00:11:45;;;;;;;;;;;4.50;99.90;;;;;;5086915;28;19908;-79
2021/01/14 00:14:10;;;;;;;;;;;4.40;99.90;;;;;;5067189;28;19913;-79
2021/01/14 00:16:35;;;;;;;;;;;4.40;99.90;;;;;;5085125;28;19927;-80
2021/01/14 00:19:01;;;;;;;;;;;4.40;99.90;;;;;;5082769;28;20349;-79
2021/01/14 00:21:26;;;;;;;;;;;4.40;99.90;;;;;;5081796;28;19930;-79
2021/01/14 00:23:52;;;;;;;;;;;4.40;99.90;;;;;;5081325;28;19917;-79
2021/01/14 00:26:17;;;;;;;;;;;4.50;99.90;;;;;;5081375;28;19913;-79
2021/01/14 00:28:43;;;;;;;;;;;4.50;99.90;;;;;;5080725;28;20003;-80
2021/01/14 00:31:08;;;;;;;;;;;4.50;99.90;;;;;;5080646;28;19932;-79
2021/01/14 00:33:33;;;;;;;;;;;4.50;99.90;;;;;;5087168;28;19908;-80
2021/01/14 00:35:59;;;;;;;;;;;4.50;99.90;;;;;;5084504;28;19912;-80
2021/01/14 00:38:24;;;;;;;;;;;4.50;99.90;;;;;;5068268;28;19909;-79
2021/01/14 00:40:50;;;;;;;;;;;4.50;99.90;;;;;;5084590;28;19966;-79
2021/01/14 00:43:16;;;;;;;;;;;4.60;99.90;;;;;;5072737;28;19913;-80
2021/01/14 00:45:41;;;;;;;;;;;4.60;99.90;;;;;;5088850;28;19912;-81
2021/01/14 00:48:06;;;;;;;;;;;4.60;99.90;;;;;;5090109;28;19920;-81
2021/01/14 00:50:32;;;;;;;;;;;4.60;99.90;;;;;;5089281;28;19938;-81
2021/01/14 00:52:58;;;;;;;;;;;4.70;99.90;;;;;;5091907;28;19909;-80
2021/01/14 00:55:23;;;;;;;;;;;4.70;99.90;;;;;;5088087;28;19959;-80
2021/01/14 00:57:48;;;;;;;;;;;4.70;99.90;;;;;;5090134;28;19909;-81
2021/01/14 01:00:15;;;;;;;;;;;4.70;99.90;;;;;;5072121;28;19914;-79
2021/01/14 01:02:42;;;;;;;;;;;4.70;99.90;;;;;;5079071;28;19916;-78
2021/01/14 01:05:09;;;;;;;;;;;4.70;99.90;;;;;;5067732;28;19916;-80
2021/01/14 01:07:34;;;;;;;;;;;4.80;99.90;;;;;;5089970;28;19909;-80
2021/01/14 01:09:59;;;;;;;;;;;4.80;99.90;;;;;;5089476;28;19924;-79
2021/01/14 01:12:25;;;;;;;;;;;4.80;99.90;;;;;;5090997;28;19909;-80
2021/01/14 01:14:50;;;;;;;;;;;4.80;99.90;;;;;;5089369;28;19913;-79
2021/01/14 01:17:16;;;;;;;;;;;4.80;99.90;;;;;;5074230;28;20320;-79
2021/01/14 01:19:41;;;;;;;;;;;4.80;99.90;;;;;;5089714;28;20131;-79
2021/01/14 01:22:07;;;;;;;;;;;4.80;99.90;;;;;;5089719;28;19916;-79
2021/01/14 01:24:32;;;;;;;;;;;4.80;99.90;;;;;;5089344;28;19912;-78
2021/01/14 01:26:58;;;;;;;;;;;4.80;99.90;;;;;;5090085;28;19966;-79
2021/01/14 01:29:23;;;;;;;;;;;4.80;99.90;;;;;;5089815;28;19919;-79
2021/01/14 01:31:49;;;;;;;;;;;4.80;99.90;;;;;;5091437;28;19913;-79
2021/01/14 01:34:15;;;;;;;;;;;4.80;99.90;;;;;;5090215;28;19912;-79
2021/01/14 01:36:41;;;;;;;;;;;4.80;99.90;;;;;;5087984;28;19920;-79
2021/01/14 01:39:06;;;;;;;;;;;4.80;99.90;;;;;;5088504;28;19916;-79
2021/01/14 01:41:32;;;;;;;;;;;4.70;99.90;;;;;;5071353;28;19921;-79
2021/01/14 01:43:57;;;;;;;;;;;4.70;99.90;;;;;;5071572;28;19972;-79
2021/01/14 01:46:30;;;;;;;;;;;4.70;99.90;;;;;;5073027;28;19916;-79
2021/01/14 01:48:56;;;;;;;;;;;4.70;99.90;;;;;;5090865;28;19912;-80
2021/01/14 01:51:22;;;;;;;;;;;4.70;99.90;;;;;;5091928;28;19916;-79
2021/01/14 01:53:48;;;;;;;;;;;4.70;99.90;;;;;;5073291;28;19913;-79
2021/01/14 01:56:15;;;;;;;;;;;4.70;99.90;;;;;;5091336;28;19919;-79
2021/01/14 01:58:41;;;;;;;;;;;4.70;99.90;;;;;;5085328;28;19923;-80
2021/01/14 02:01:08;;;;;;;;;;;4.70;99.90;;;;;;5088609;28;20404;-78
2021/01/14 02:03:33;;;;;;;;;;;4.60;99.90;;;;;;5060015;28;19983;-78
2021/01/14 02:05:59;;;;;;;;;;;4.60;99.90;;;;;;5085547;28;19934;-79
2021/01/14 02:08:35;;;;;;;;;;;4.60;99.90;;;;;;5087641;28;20007;-79
2021/01/14 02:11:24;;;;;;;;;;;4.60;99.90;;;;;;5088070;28;19916;-78
2021/01/14 02:13:55;;;;;;;;;;;4.60;99.90;;;;;;5087082;28;19913;-79
2021/01/14 02:16:21;;;;;;;;;;;4.60;99.90;;;;;;5089292;28;19923;-79
2021/01/14 02:18:47;;;;;;;;;;;4.50;99.90;;;;;;5089272;28;19962;-79
2021/01/14 02:21:14;;;;;;;;;;;4.50;99.90;;;;;;5087437;28;19921;-78
2021/01/14 02:23:51;;;;;;;;;;;4.50;99.90;;;;;;5087341;28;19919;-79
2021/01/14 02:26:21;;;;;;;;;;;4.50;99.90;;;;;;5088117;28;19916;-79
2021/01/14 02:28:46;;;;;;;;;;;4.50;99.90;;;;;;5070642;28;19912;-79
2021/01/14 02:31:13;;;;;;;;;;;4.50;99.90;;;;;;5070863;28;20002;-79
2021/01/14 02:33:39;;;;;;;;;;;4.50;99.90;;;;;;5087496;28;19919;-79
2021/01/14 02:36:04;;;;;;;;;;;4.50;99.90;;;;;;5087787;28;19913;-78
2021/01/14 02:38:30;;;;;;;;;;;4.50;99.90;;;;;;5086811;28;19919;-79
2021/01/14 02:40:55;;;;;;;;;;;4.50;99.90;;;;;;5087468;28;20007;-78
2021/01/14 02:43:21;;;;;;;;;;;4.50;99.90;;;;;;5087239;28;19916;-79
2021/01/14 02:45:47;;;;;;;;;;;4.50;99.90;;;;;;5070631;28;19916;-78
2021/01/14 02:48:14;;;;;;;;;;;4.50;99.90;;;;;;5088346;28;19928;-78
2021/01/14 02:50:40;;;;;;;;;;;4.50;99.90;;;;;;5088024;28;19916;-79
2021/01/14 02:53:08;;;;;;;;;;;4.50;99.90;;;;;;5070448;28;19922;-78
2021/01/14 02:55:33;;;;;;;;;;;4.50;99.90;;;;;;5086880;28;19951;-79
2021/01/14 02:57:59;;;;;;;;;;;4.50;99.90;;;;;;5069630;28;20566;-79
2021/01/14 03:00:25;;;;;;;;;;;4.50;99.90;;;;;;5087119;28;19920;-78
2021/01/14 03:02:50;;;;;;;;;;;4.50;99.90;;;;;;5088324;28;19916;-78
2021/01/14 03:05:15;;;;;;;;;;;4.50;99.90;;;;;;5068998;28;19954;-79
2021/01/14 03:07:41;;;;;;;;;;;4.50;99.90;;;;;;5087969;28;19909;-79
2021/01/14 03:10:06;;;;;;;;;;;4.50;99.90;;;;;;5065495;28;20015;-78
2021/01/14 03:12:32;;;;;;;;;;;4.40;99.90;;;;;;5083696;28;19919;-79
2021/01/14 03:14:57;;;;;;;;;;;4.40;99.90;;;;;;5066596;28;19919;-78
2021/01/14 03:17:23;;;;;;;;;;;4.40;99.90;;;;;;5088034;28;19908;-79
2021/01/14 03:19:48;;;;;;;;;;;4.40;99.90;;;;;;5086389;28;19919;-78
2021/01/14 03:22:14;;;;;;;;;;;4.40;99.90;;;;;;5088440;28;19944;-79
2021/01/14 03:24:39;;;;;;;;;;;4.40;99.90;;;;;;5086110;28;19912;-79
2021/01/14 03:27:05;;;;;;;;;;;4.40;99.90;;;;;;5088484;28;19976;-79
2021/01/14 03:29:31;;;;;;;;;;;4.40;99.90;;;;;;5085144;28;19916;-79
2021/01/14 03:32:00;;;;;;;;;;;4.30;99.90;;;;;;5086405;28;19924;-79
2021/01/14 03:34:26;;;;;;;;;;;4.30;99.90;;;;;;5087904;28;19956;-79
2021/01/14 03:36:57;;;;;;;;;;;4.30;99.90;;;;;;5087191;28;19909;-78
2021/01/14 03:39:26;;;;;;;;;;;4.30;99.90;;;;;;5089229;28;19912;-79
2021/01/14 03:41:52;;;;;;;;;;;4.30;99.90;;;;;;5087613;28;19909;-81
2021/01/14 03:44:18;;;;;;;;;;;4.30;99.90;;;;;;5072060;28;19912;-79
2021/01/14 03:46:49;;;;;;;;;;;4.30;99.90;;;;;;5087915;28;20389;-79
2021/01/14 03:49:15;;;;;;;;;;;4.30;99.90;;;;;;5087676;28;19912;-81
2021/01/14 03:51:44;;;;;;;;;;;4.30;99.90;;;;;;5069984;28;19919;-80
2021/01/14 03:54:10;;;;;;;;;;;4.30;99.90;;;;;;5087898;28;20372;-80
2021/01/14 03:56:36;;;;;;;;;;;4.20;99.90;;;;;;5087261;28;19919;-81
2021/01/14 03:59:02;;;;;;;;;;;4.20;99.90;;;;;;5087313;28;20085;-81
2021/01/14 04:01:27;;;;;;;;;;;4.20;99.90;;;;;;5087219;28;19924;-79
2021/01/14 04:03:53;;;;;;;;;;;4.20;99.90;;;;;;5090077;28;19974;-81
2021/01/14 04:06:20;;;;;;;;;;;4.20;99.90;;;;;;5086265;28;19913;-81
2021/01/14 04:08:45;;;;;;;;;;;4.20;99.90;;;;;;5087962;28;20018;-81
2021/01/14 04:11:11;;;;;;;;;;;4.20;99.90;;;;;;5086783;28;19924;-81
2021/01/14 04:13:36;;;;;;;;;;;4.20;99.90;;;;;;5070328;28;19916;-80
2021/01/14 04:16:02;;;;;;;;;;;4.20;99.90;;;;;;5088219;28;19912;-81
2021/01/14 04:18:27;;;;;;;;;;;4.20;99.90;;;;;;5088850;28;19923;-81
2021/01/14 04:20:53;;;;;;;;;;;4.20;99.90;;;;;;5070005;28;19924;-81
2021/01/14 04:23:18;;;;;;;;;;;4.20;99.90;;;;;;5072019;28;19913;-81
2021/01/14 04:25:44;;;;;;;;;;;4.20;99.90;;;;;;5088981;28;19948;-81
2021/01/14 04:28:09;;;;;;;;;;;4.10;99.90;;;;;;5088255;28;19920;-81
2021/01/14 04:30:35;;;;;;;;;;;4.10;99.90;;;;;;5088752;28;19923;-81
2021/01/14 04:33:13;;;;;;;;;;;4.10;99.90;;;;;;5068735;28;19979;-81
2021/01/14 04:35:46;;;;;;;;;;;4.10;99.90;;;;;;5070175;28;19962;-80
2021/01/14 04:38:12;;;;;;;;;;;4.10;99.90;;;;;;5087683;28;19979;-81
2021/01/14 04:40:37;;;;;;;;;;;4.00;99.90;;;;;;5070750;28;19909;-80
2021/01/14 04:43:04;;;;;;;;;;;4.10;99.90;;;;;;5070783;28;19920;-81
2021/01/14 04:45:29;;;;;;;;;;;4.00;99.90;;;;;;5087159;28;20073;-78
2021/01/14 04:47:55;;;;;;;;;;;4.00;99.90;;;;;;5069118;23;19929;-81
2021/01/14 04:50:21;;;;;;;;;;;4.00;99.90;;;;;;5037240;28;19920;-81
2021/01/14 04:52:48;;;;;;;;;;;4.00;99.90;;;;;;5034514;28;20000;-81
2021/01/14 04:55:14;;;;;;;;;;;4.00;99.90;;;;;;5052283;28;19909;-81
2021/01/14 04:57:42;;;;;;;;;;;4.00;99.90;;;;;;5035835;28;20262;-81
2021/01/14 05:00:09;;;;;;;;;;;4.00;99.90;;;;;;5036844;28;19909;-81
2021/01/14 05:02:39;;;;;;;;;;;4.00;99.90;;;;;;5032066;28;19920;-81
2021/01/14 05:05:07;;;;;;;;;;;4.00;99.90;;;;;;5034790;28;19909;-80
2021/01/14 05:07:33;;;;;;;;;;;3.90;99.90;;;;;;5033405;28;19920;-81
2021/01/14 05:10:00;;;;;;;;;;;3.90;99.90;;;;;;5034043;28;19913;-81
2021/01/14 05:12:25;;;;;;;;;;;3.90;99.90;;;;;;5033880;28;19949;-81
2021/01/14 05:14:51;;;;;;;;;;;3.90;99.90;;;;;;5033092;28;19913;-81
2021/01/14 05:17:16;;;;;;;;;;;3.90;99.90;;;;;;5034651;28;19944;-81
2021/01/14 05:19:42;;;;;;;;;;;3.90;99.90;;;;;;5036448;28;19920;-81
2021/01/14 05:22:08;;;;;;;;;;;3.90;99.90;;;;;;5037023;28;20439;-81
2021/01/14 05:24:33;;;;;;;;;;;3.90;99.90;;;;;;5036884;28;19913;-81
2021/01/14 05:26:58;;;;;;;;;;;3.90;99.90;;;;;;5038554;28;19917;-81
2021/01/14 05:29:24;;;;;;;;;;;3.90;99.90;;;;;;5036688;28;19913;-81
2021/01/14 05:31:50;;;;;;;;;;;3.80;99.90;;;;;;5038597;28;19917;-80
2021/01/14 05:34:17;;;;;;;;;;;3.80;99.90;;;;;;5036826;28;20622;-80
2021/01/14 05:37:04;;;;;;;;;;;3.80;99.90;;;;;;5038104;28;19913;-81
2021/01/14 05:39:30;;;;;;;;;;;3.80;99.90;;;;;;5035728;28;19999;-80
2021/01/14 05:41:56;;;;;;;;;;;3.70;99.90;;;;;;5037921;28;20378;-81
2021/01/14 05:44:37;;;;;;;;;;;3.70;99.90;;;;;;5036098;28;20039;-81
2021/01/14 05:47:23;;;;;;;;;;;3.70;99.90;;;;;;5018371;28;19920;-81
2021/01/14 05:49:53;;;;;;;;;;;3.70;99.90;;;;;;5029608;28;19925;-81
2021/01/14 05:52:21;;;;;;;;;;;3.70;99.90;;;;;;5037088;28;19921;-81
2021/01/14 05:54:52;;;;;;;;;;;3.70;99.90;;;;;;5035743;28;19964;-81
2021/01/14 05:57:18;;;;;;;;;;;3.70;99.90;;;;;;5035898;28;19962;-81
2021/01/14 05:59:53;;;;;;;;;;;3.70;99.90;;;;;;5038472;28;20000;-81
2021/01/14 06:02:26;;;;;;;;;;;3.70;99.90;;;;;;5037620;28;19917;-81
2021/01/14 06:04:51;;;;;;;;;;;3.70;99.90;;;;;;5037978;28;19913;-80
2021/01/14 06:07:16;;;;;;;;;;;3.60;99.90;;;;;;5037124;28;19920;-81
2021/01/14 06:09:42;;;;;;;;;;;3.60;99.90;;;;;;5037029;28;19917;-81
2021/01/14 06:12:10;;;;;;;;;;;3.60;99.90;;;;;;5037048;28;20385;-81
2021/01/14 06:14:36;;;;;;;;;;;3.60;99.90;;;;;;5038133;28;19913;-81
2021/01/14 06:17:05;;;;;;;;;;;3.60;99.90;;;;;;5036967;28;19920;-81
2021/01/14 06:19:31;;;;;;;;;;;3.60;99.90;;;;;;5039222;28;19909;-81
2021/01/14 06:21:57;;;;;;;;;;;3.60;99.90;;;;;;5037841;28;19961;-81
2021/01/14 06:24:30;;;;;;;;;;;3.60;99.90;;;;;;5039425;28;19981;-81
2021/01/14 06:26:56;;;;;;;;;;;3.60;99.90;;;;;;5037393;28;19913;-81
2021/01/14 06:29:23;;;;;;;;;;;3.60;99.90;;;;;;5038245;28;19967;-80
2021/01/14 06:31:49;;;;;;;;;;;3.60;99.90;;;;;;5037724;28;20285;-81
2021/01/14 06:34:15;;;;;;;;;;;3.60;99.90;;;;;;5037710;28;19913;-81
2021/01/14 06:36:44;;;;;;;;;;;3.60;99.90;;;;;;5037133;28;19948;-81
2021/01/14 06:39:11;;;;;;;;;;;3.60;99.90;;;;;;5038838;28;19928;-81
2021/01/14 06:41:37;;;;;;;;;;;3.50;99.90;;;;;;5036564;28;19928;-81
2021/01/14 06:44:05;;;;;;;;;;;3.50;99.90;;;;;;5038721;28;19917;-81
2021/01/14 06:46:32;;;;;;;;;;;3.50;99.90;;;;;;5036779;28;19912;-81
2021/01/14 06:49:06;;;;;;;;;;;3.50;99.90;;;;;;5037196;28;19960;-81
2021/01/14 06:51:53;;;;;;;;;;;3.50;99.90;;;;;;5037711;28;19924;-81
2021/01/14 06:54:19;;;;;;;;;;;3.40;99.90;;;;;;5037179;28;19913;-81
2021/01/14 06:56:57;;;;;;;;;;;3.40;99.90;;;;;;5038256;28;19936;-81
2021/01/14 06:59:23;;;;;;;;;;;3.30;99.90;;;;;;5038026;28;19913;-81
2021/01/14 07:02:18;;;;;;;;;;;3.30;99.90;;;;;;5038652;28;20266;-81
2021/01/14 07:04:43;;;;;;;;;;;3.30;99.90;;;;;;5001696;28;19913;-82
2021/01/14 07:07:21;;;;;;;;;;;3.40;99.90;;;;;;5037429;28;20020;-81
2021/01/14 07:09:49;;;;;;;;;;;3.30;99.90;;;;;;5036796;28;19925;-81
2021/01/14 07:12:15;;;;;;;;;;;3.30;99.90;;;;;;5036258;28;19967;-80
2021/01/14 07:14:45;;;;;;;;;;;3.30;99.90;;;;;;5028860;28;19914;-80
2021/01/14 07:17:17;;;;;;;;;;;3.30;99.90;;;;;;5034535;28;20330;-80
2021/01/14 07:19:42;;;;;;;;;;;3.40;99.90;;;;;;5035805;28;19913;-80
2021/01/14 07:22:09;;;;;;;;;;;3.40;99.90;;;;;;5036711;28;19917;-81
2021/01/14 07:24:35;;;;;;;;;;;3.40;99.90;;;;;;5029885;28;19964;-81
2021/01/14 07:27:01;;;;;;;;;;;3.50;99.90;;;;;;5036470;28;20016;-81
2021/01/14 07:29:27;;;;;;;;;;;3.50;99.90;;;;;;5035086;28;19913;-81
2021/01/14 07:31:57;;;;;;;;;;;3.50;99.90;;;;;;5037388;28;19917;-82
2021/01/14 07:34:38;;;;;;;;;;;3.60;99.90;;;;;;5036907;28;20021;-82
2021/01/14 07:37:04;;;;;;;;;;;3.60;99.90;;;;;;5037907;28;19909;-82
2021/01/14 07:39:48;;;;;;;;;;;3.60;99.90;;;;;;5036749;28;19921;-82
2021/01/14 07:42:23;;;;;;;;;;;3.60;99.90;;;;;;5035909;28;20417;-81
2021/01/14 07:44:49;;;;;;;;;;;3.60;99.90;;;;;;5036280;28;20016;-83
2021/01/14 07:47:21;;;;;;;;;;;3.60;99.90;;;;;;5036348;28;19996;-83
2021/01/14 07:49:47;;;;;;;;;;;3.70;99.90;;;;;;5036344;28;19924;-83
2021/01/14 07:52:14;;;;;;;;;;;3.70;99.90;;;;;;5033466;28;19914;-83
2021/01/14 07:54:55;;;;;;;;;;;3.70;99.90;;;;;;5034153;28;19920;-81
2021/01/14 07:57:25;;;;;;;;;;;3.70;99.90;;;;;;5036480;28;19952;-81
2021/01/14 07:59:53;;;;;;;;;;;3.70;99.90;;;;;;5036363;28;19952;-81
2021/01/14 08:02:18;;;;;;;;;;;3.70;99.90;;;;;;5036529;28;19913;-83
2021/01/14 08:04:45;;;;;;;;;;;3.70;99.90;;;;;;5035389;28;19913;-81
2021/01/14 08:07:20;;;;;;;;;;;3.70;99.90;;;;;;5036776;28;20400;-81
2021/01/14 08:09:46;;;;;;;;;;;3.80;99.90;;;;;;5043168;28;20332;-81
2021/01/14 08:12:12;;;;;;;;;;;3.80;99.90;;;;;;5034039;28;19913;-81
2021/01/14 08:14:40;;;;;;;;;;;3.80;99.90;;;;;;5033903;28;19914;-81
2021/01/14 08:17:19;;;;;;;;;;;3.80;99.90;;;;;;5032254;28;20637;-81
2021/01/14 08:19:44;;;;;;;;;;;3.90;99.90;;;;;;5033720;28;20317;-80
2021/01/14 08:22:11;;;;;;;;;;;3.90;99.90;;;;;;5036633;28;20000;-81
2021/01/14 08:24:48;;;;;;;;;;;3.90;99.90;;;;;;5035789;28;19921;-83
2021/01/14 08:27:16;;;;;;;;;;;3.90;99.90;;;;;;5035837;28;19944;-84
2021/01/14 08:29:45;;;;;;;;;;;3.90;99.90;;;;;;5035681;28;19924;-83
2021/01/14 08:32:26;;;;;;;;;;;3.90;99.90;;;;;;5042905;28;19924;-83
2021/01/14 08:34:52;;;;;;;;;;;3.90;99.90;;;;;;5029388;28;19909;-83
2021/01/14 08:37:28;;;;;;;;;;;4.00;99.90;;;;;;5035643;28;19941;-83
2021/01/14 08:39:57;;;;;;;;;;;4.00;99.90;;;;;;5035015;28;20377;-83
2021/01/14 08:42:29;;;;;;;;;;;4.00;99.90;;;;;;5035667;28;20381;-83
2021/01/14 08:44:54;;;;;;;;;;;4.00;99.90;;;;;;5033590;28;20039;-83
2021/01/14 08:47:40;;;;;;;;;;;4.00;99.90;;;;;;5036702;28;20038;-83
2021/01/14 08:50:05;;;;;;;;;;;4.00;99.90;;;;;;5034666;28;20385;-84
2021/01/14 08:52:34;;;;;;;;;;;4.10;99.90;;;;;;5038673;28;19920;-84
2021/01/14 08:55:01;;;;;;;;;;;4.10;99.90;;;;;;5038066;28;19921;-83
2021/01/14 08:57:47;;;;;;;;;;;4.10;99.90;;;;;;5040217;28;19967;-82
2021/01/14 09:00:12;;;;;;;;;;;4.20;99.90;;;;;;5039081;28;19945;-82
2021/01/14 09:02:38;;;;;;;;;;;4.20;99.90;;;;;;5031294;28;19910;-82
2021/01/14 09:05:04;;;;;;;;;;;4.20;99.90;;;;;;5036263;28;19909;-81
2021/01/14 09:07:29;;;;;;;;;;;4.30;99.90;;;;;;5037674;28;20015;-82
2021/01/14 09:09:54;;;;;;;;;;;4.40;99.90;;;;;;5038268;28;20335;-82
2021/01/14 09:12:20;;;;;;;;;;;4.50;99.90;;;;;;5038432;28;19913;-82
2021/01/14 09:14:45;;;;;;;;;;;4.60;99.90;;;;;;5037817;28;19929;-80
2021/01/14 09:17:15;;;;;;;;;;;4.60;99.90;;;;;;5030468;28;19916;-80
2021/01/14 09:19:40;;;;;;;;;;;4.70;99.90;;;;;;5035726;28;20403;-80
2021/01/14 09:22:06;;;;;;;;;;;4.70;99.90;;;;;;5036327;28;19913;-80
2021/01/14 09:24:33;;;;;;;;;;;4.80;99.90;;;;;;5035323;28;19917;-83
2021/01/14 09:26:59;;;;;;;;;;;4.80;99.90;;;;;;5035886;28;20456;-82
2021/01/14 09:29:30;;;;;;;;;;;4.80;99.90;;;;;;5039814;28;19977;-82
2021/01/14 09:31:56;;;;;;;;;;;4.80;99.90;;;;;;5038748;28;19932;-82
2021/01/14 09:34:22;;;;;;;;;;;4.80;99.90;;;;;;5039098;28;19956;-82
2021/01/14 09:36:47;;;;;;;;;;;4.90;99.90;;;;;;5038177;28;19940;-83
2021/01/14 09:39:16;;;;;;;;;;;4.90;99.90;;;;;;5036506;28;19913;-82
2021/01/14 09:41:42;;;;;;;;;;;4.90;99.90;;;;;;5036795;28;19975;-83
2021/01/14 09:44:14;;;;;;;;;;;4.80;99.90;;;;;;5035995;28;19913;-81
2021/01/14 09:46:41;;;;;;;;;;;4.80;99.90;;;;;;5037585;28;19924;-82
2021/01/14 09:49:09;;;;;;;;;;;4.80;99.90;;;;;;5038229;28;19917;-83
2021/01/14 09:51:38;;;;;;;;;;;4.80;99.90;;;;;;5037320;28;20005;-83
2021/01/14 09:54:04;;;;;;;;;;;4.80;99.90;;;;;;5052550;28;19927;-83
2021/01/14 09:56:37;;;;;;;;;;;4.80;99.90;;;;;;5037446;28;20423;-83
2021/01/14 09:59:21;;;;;;;;;;;4.70;99.90;;;;;;5032712;28;19963;-82
2021/01/14 10:01:53;;;;;;;;;;;4.70;99.90;;;;;;5045188;28;19936;-82
2021/01/14 10:04:21;;;;;;;;;;;4.70;99.90;;;;;;5053855;28;19913;-80
2021/01/14 10:07:03;;;;;;;;;;;4.70;99.90;;;;;;5036869;28;19920;-81
2021/01/14 10:09:32;;;;;;;;;;;4.70;99.90;;;;;;5035721;28;20039;-82
2021/01/14 10:11:58;;;;;;;;;;;4.70;99.90;;;;;;5035336;28;20368;-83
2021/01/14 10:14:23;;;;;;;;;;;4.70;99.90;;;;;;5035775;28;19917;-83
2021/01/14 10:16:49;;;;;;;;;;;4.70;99.90;;;;;;5036624;28;20658;-80
2021/01/14 10:19:16;;;;;;;;;;;4.80;99.90;;;;;;5034482;28;19913;-82
2021/01/14 10:21:42;;;;;;;;;;;4.80;99.90;;;;;;5053056;28;19913;-83
2021/01/14 10:24:18;;;;;;;;;;;4.90;99.90;;;;;;5037775;28;19958;-82
2021/01/14 10:26:43;;;;;;;;;;;4.80;99.90;;;;;;5038567;28;19982;-82
2021/01/14 10:29:09;;;;;;;;;;;4.80;99.90;;;;;;5036373;28;19913;-82
2021/01/14 10:31:35;;;;;;;;;;;4.90;99.90;;;;;;5036922;28;19917;-80
2021/01/14 10:34:01;;;;;;;;;;;4.90;99.90;;;;;;5035008;28;19962;-81
2021/01/14 10:36:42;;;;;;;;;;;4.90;99.90;;;;;;5036255;28;20188;-81
2021/01/14 10:39:08;;;;;;;;;;;4.90;99.90;;;;;;5034279;28;19940;-81
2021/01/14 10:41:33;;;;;;;;;;;4.90;99.90;;;;;;5039631;28;19920;-81
2021/01/14 10:44:04;;;;;;;;;;;4.90;99.90;;;;;;5040727;28;20410;-82
2021/01/14 10:46:29;;;;;;;;;;;4.90;99.90;;;;;;5041102;28;20336;-83
2021/01/14 10:48:54;;;;;;;;;;;5.00;99.90;;;;;;5036697;28;19917;-83
2021/01/14 10:51:32;;;;;;;;;;;5.00;99.90;;;;;;5056002;28;19928;-82
2021/01/14 10:53:58;;;;;;;;;;;5.00;99.90;;;;;;5035665;28;20554;-82
2021/01/14 10:56:24;;;;;;;;;;;5.10;99.90;;;;;;5038328;28;19945;-83
2021/01/14 10:58:56;;;;;;;;;;;5.10;99.90;;;;;;5036936;28;19940;-83
2021/01/14 11:01:21;;;;;;;;;;;5.10;99.90;;;;;;5036240;28;20381;-83
2021/01/14 11:03:47;;;;;;;;;;;5.20;99.90;;;;;;5036546;28;19959;-84
2021/01/14 11:06:26;;;;;;;;;;;5.20;99.90;;;;;;5036937;28;20035;-82
2021/01/14 11:08:57;;;;;;;;;;;5.30;99.90;;;;;;5035738;28;19913;-83
2021/01/14 11:11:23;;;;;;;;;;;5.30;99.90;;;;;;5037279;28;19954;-83
2021/01/14 11:13:49;;;;;;;;;;;5.30;99.90;;;;;;5035987;28;19913;-82
2021/01/14 11:16:18;;;;;;;;;;;5.20;99.90;;;;;;5037086;28;19920;-83
2021/01/14 11:18:47;;;;;;;;;;;5.20;99.90;;;;;;5033848;28;20274;-82
2021/01/14 11:21:13;;;;;;;;;;;5.20;99.90;;;;;;5036312;28;19945;-82
2021/01/14 11:23:39;;;;;;;;;;;5.10;99.90;;;;;;5035351;28;20566;-83
2021/01/14 11:26:06;;;;;;;;;;;5.10;99.90;;;;;;5037528;28;19913;-83
2021/01/14 11:28:32;;;;;;;;;;;5.00;99.90;;;;;;5035054;28;19978;-82
2021/01/14 11:30:58;;;;;;;;;;;4.90;99.90;;;;;;5037987;28;19917;-83
2021/01/14 11:33:23;;;;;;;;;;;4.90;99.90;;;;;;5035814;28;19913;-83
2021/01/14 11:35:49;;;;;;;;;;;4.90;99.90;;;;;;5033127;28;20355;-83
2021/01/14 11:38:14;;;;;;;;;;;4.90;99.90;;;;;;5037260;28;20489;-83
2021/01/14 11:40:40;;;;;;;;;;;4.90;99.90;;;;;;5037866;28;19914;-83
2021/01/14 11:43:05;;;;;;;;;;;4.80;99.90;;;;;;5036473;28;19913;-83
2021/01/14 11:45:31;;;;;;;;;;;4.80;99.90;;;;;;5037920;28;19912;-83
2021/01/14 11:47:56;;;;;;;;;;;4.80;99.90;;;;;;5035913;28;19916;-83
2021/01/14 11:50:22;;;;;;;;;;;4.80;99.90;;;;;;5035737;28;19921;-83
2021/01/14 11:52:48;;;;;;;;;;;4.80;99.90;;;;;;5030407;28;19913;-83
2021/01/14 11:55:14;;;;;;;;;;;4.80;99.90;;;;;;5031638;28;19913;-83
2021/01/14 11:57:40;;;;;;;;;;;4.90;99.90;;;;;;5034127;28;19921;-83
2021/01/14 12:00:07;;;;;;;;;;;5.00;99.90;;;;;;5035467;28;19913;-83
2021/01/14 12:02:32;;;;;;;;;;;5.00;99.90;;;;;;5036516;28;20412;-83
2021/01/14 12:04:58;;;;;;;;;;;5.10;99.90;;;;;;5034462;28;19913;-83
2021/01/14 12:07:23;;;;;;;;;;;5.20;99.90;;;;;;5032412;28;20444;-83
2021/01/14 12:09:49;;;;;;;;;;;5.20;99.90;;;;;;5026961;28;19925;-81
2021/01/14 12:12:14;;;;;;;;;;;5.20;99.90;;;;;;5048950;28;19960;-81
2021/01/14 12:14:40;;;;;;;;;;;5.20;99.90;;;;;;5035786;28;19909;-81
2021/01/14 12:17:05;;;;;;;;;;;5.20;99.90;;;;;;5035968;28;19920;-81
2021/01/14 12:19:31;;;;;;;;;;;5.20;99.90;;;;;;5036250;28;19924;-81
2021/01/14 12:22:03;;;;;;;;;;;5.20;99.90;;;;;;5031866;28;20342;-81
2021/01/14 12:24:29;;;;;;;;;;;5.10;99.90;;;;;;5032466;28;20389;-81
2021/01/14 12:26:55;;;;;;;;;;;5.10;99.90;;;;;;5032647;28;20515;-81
2021/01/14 12:29:20;;;;;;;;;;;5.10;99.90;;;;;;5040031;28;19917;-81
2021/01/14 12:31:46;;;;;;;;;;;5.10;99.90;;;;;;5036815;28;21640;-81
2021/01/14 12:34:11;;;;;;;;;;;5.20;99.90;;;;;;5038527;28;20024;-81
2021/01/14 12:36:36;;;;;;;;;;;5.30;99.90;;;;;;5038278;28;19921;-82
2021/01/14 12:39:02;;;;;;;;;;;5.30;99.90;;;;;;5035653;28;19971;-81
2021/01/14 12:41:28;;;;;;;;;;;5.30;99.90;;;;;;5033095;28;19913;-82
2021/01/14 12:43:54;;;;;;;;;;;5.40;99.90;;;;;;5034017;28;19967;-81
2021/01/14 12:46:19;;;;;;;;;;;5.40;99.90;;;;;;5040360;28;19913;-83
2021/01/14 12:48:45;;;;;;;;;;;5.50;99.90;;;;;;5035716;28;19921;-83
2021/01/14 12:51:12;;;;;;;;;;;5.50;99.90;;;;;;5049917;28;19917;-82
2021/01/14 12:53:38;;;;;;;;;;;5.50;99.90;;;;;;5033652;28;19913;-81
2021/01/14 12:56:03;;;;;;;;;;;5.50;99.90;;;;;;5033123;28;19917;-82
2021/01/14 12:58:32;;;;;;;;;;;5.50;99.90;;;;;;5034090;28;19970;-82
2021/01/14 13:00:57;;;;;;;;;;;5.50;99.90;;;;;;5039567;28;19937;-82
2021/01/14 13:03:23;;;;;;;;;;;5.60;99.90;;;;;;5039322;28;19920;-82
2021/01/14 13:05:48;;;;;;;;;;;5.60;99.90;;;;;;5034768;28;20123;-81
2021/01/14 13:08:13;;;;;;;;;;;5.60;99.90;;;;;;5036906;28;19940;-84
2021/01/14 13:10:39;;;;;;;;;;;5.70;99.90;;;;;;5038648;28;20047;-82
2021/01/14 13:13:04;;;;;;;;;;;5.70;99.90;;;;;;5036312;28;19919;-82
2021/01/14 13:15:30;;;;;;;;;;;5.70;99.90;;;;;;5032129;28;20420;-81
2021/01/14 13:17:55;;;;;;;;;;;5.70;99.90;;;;;;5031146;28;20279;-81
2021/01/14 13:20:21;;;;;;;;;;;5.80;99.90;;;;;;5031503;28;20395;-82
2021/01/14 13:22:46;;;;;;;;;;;5.80;99.90;;;;;;5036364;28;20520;-81
2021/01/14 13:25:12;;;;;;;;;;;5.80;99.90;;;;;;5050830;28;19967;-81
2021/01/14 13:27:37;;;;;;;;;;;5.80;99.90;;;;;;5035192;28;19914;-81
2021/01/14 13:30:03;;;;;;;;;;;5.80;99.90;;;;;;5032851;28;19962;-81
2021/01/14 13:32:28;;;;;;;;;;;5.80;99.90;;;;;;5033323;28;19913;-82
2021/01/14 13:34:54;;;;;;;;;;;5.70;99.90;;;;;;5031804;28;19985;-82
2021/01/14 13:37:19;;;;;;;;;;;5.60;99.90;;;;;;5048762;28;19913;-82
2021/01/14 13:39:45;;;;;;;;;;;5.60;99.90;;;;;;5039493;28;20324;-81
2021/01/14 13:42:11;;;;;;;;;;;5.60;99.90;;;;;;5036298;28;19960;-82
2021/01/14 13:44:37;;;;;;;;;;;5.70;99.90;;;;;;5032976;28;19921;-81
2021/01/14 13:47:03;;;;;;;;;;;5.70;99.90;;;;;;5033145;28;19927;-81
2021/01/14 13:49:28;;;;;;;;;;;5.70;99.90;;;;;;5036496;28;19940;-82
2021/01/14 13:51:54;;;;;;;;;;;5.60;99.90;;;;;;5033953;28;20294;-82
2021/01/14 13:54:19;;;;;;;;;;;5.60;99.90;;;;;;5032417;28;20400;-82
2021/01/14 13:56:45;;;;;;;;;;;5.60;99.90;;;;;;5036095;28;19913;-82
2021/01/14 13:59:10;;;;;;;;;;;5.60;99.90;;;;;;5032744;28;19909;-81
2021/01/14 14:01:36;;;;;;;;;;;5.50;99.90;;;;;;5033544;28;19924;-81
2021/01/14 14:04:02;;;;;;;;;;;5.40;99.90;;;;;;5031125;28;19923;-81
2021/01/14 14:06:37;;;;;;;;;;;5.40;99.90;;;;;;5038187;28;19913;-81
2021/01/14 14:09:13;;;;;;;;;;;5.30;99.90;;;;;;5035959;28;19909;-81
2021/01/14 14:11:40;;;;;;;;;;;5.30;99.90;;;;;;5032809;28;19921;-82
2021/01/14 14:14:06;;;;;;;;;;;5.20;99.90;;;;;;5034729;28;19952;-81
2021/01/14 14:16:31;;;;;;;;;;;5.10;99.90;;;;;;5035335;28;19913;-82
2021/01/14 14:18:57;;;;;;;;;;;5.00;99.90;;;;;;5032462;28;19955;-82
2021/01/14 14:21:22;;;;;;;;;;;5.00;99.90;;;;;;5040306;28;19920;-82
2021/01/14 14:23:48;;;;;;;;;;;4.90;99.90;;;;;;5036074;28;19927;-81
2021/01/14 14:26:14;;;;;;;;;;;4.80;99.90;;;;;;5031880;28;19917;-81
2021/01/14 14:28:39;;;;;;;;;;;4.70;99.90;;;;;;5030641;28;19976;-81
2021/01/14 14:31:07;;;;;;;;;;;4.70;99.90;;;;;;5033564;28;20345;-82
2021/01/14 14:33:32;;;;;;;;;;;4.60;99.90;;;;;;5034434;28;19913;-82